Esmeralda Dos — EA8625 — position and weather

sailwx.info

Track history (hours):
 
Tides and Currents Weather Stations Pressure Air Temp Water Temp Dewpoint Dewpoint Depression Visibility Wind Speed Wind Dir Waves Ship Positions

Esmeralda Dos

Last reported at 2017-Oct-30 13:08 UTC. Time now 2017-Nov-24 16:48 UTC.
Position N 39°34' E 002°38'.
Warning: this ship's position is 25 days out of date.

Length 20 m.

Type: Passenger vessel. MMSI: 224005990.

Date/timePositionNaut miles runAvg speedWind from/ knotsBaromVisibWave heightAir tempDewpointWater temp
2017-Oct-30 13:08N 39°34' E 002°38'0 1.4
2017-Oct-30 13:00N 39°34' E 002°38'4 8.4
2017-Oct-30 12:31N 39°31' E 002°34'2 3.6
2017-Oct-30 12:00N 39°30' E 002°32'1 2.6
2017-Oct-30 11:30N 39°29' E 002°32'3 4.6
2017-Oct-30 10:46N 39°32' E 002°33'0 1.0
2017-Oct-30 10:30N 39°31' E 002°33'1 2.4
2017-Oct-30 09:58N 39°30' E 002°32'1 1.5
2017-Oct-30 09:31N 39°30' E 002°32'4 7.6
2017-Oct-30 09:00N 39°32' E 002°36'2 4.8
2017-Oct-30 08:31N 39°34' E 002°38'0 0.0
2017-Oct-29 16:55N 39°34' E 002°38'1 3.5
2017-Oct-29 16:30N 39°32' E 002°38'4 8.4
2017-Oct-29 15:59N 39°31' E 002°32'1 2.0
2017-Oct-29 15:31N 39°30' E 002°34'5 9.4
2017-Oct-29 15:01N 39°33' E 002°39'3 6.7
2017-Oct-29 14:30N 39°32' E 002°35'2 4.1
2017-Oct-29 14:00N 39°30' E 002°33'0 0.5
2017-Oct-29 13:30N 39°30' E 002°32'0 0.0
2017-Oct-29 13:01N 39°30' E 002°32'0 0.1
2017-Oct-29 12:30N 39°30' E 002°32'0 0.2
2017-Oct-29 12:01N 39°30' E 002°32'3 5.6
2017-Oct-29 11:30N 39°28' E 002°32'3 6.4
2017-Oct-29 11:00N 39°31' E 002°33'1 1.4
2017-Oct-29 10:30N 39°31' E 002°33'1 2.3
2017-Oct-29 10:00N 39°30' E 002°32'1 2.3
2017-Oct-29 09:30N 39°30' E 002°34'5 9.0
2017-Oct-29 09:00N 39°33' E 002°38'1 2.0
2017-Oct-29 08:30N 39°34' E 002°38'0 0.0
2017-Oct-28 13:50N 39°34' E 002°38'2 4.6
2017-Oct-28 13:30N 39°32' E 002°37'4 8.2
2017-Oct-28 13:00N 39°31' E 002°32'2 2.6
2017-Oct-28 12:25N 39°31' E 002°34'3 7.9
2017-Oct-28 12:00N 39°33' E 002°38'3 6.4
2017-Oct-28 11:30N 39°32' E 002°34'2 3.1
2017-Oct-28 11:00N 39°31' E 002°33'1 1.4
2017-Oct-28 10:30N 39°30' E 002°34'3 7.0
2017-Oct-28 10:00N 39°33' E 002°37'3 6.6
2017-Oct-28 09:29N 39°31' E 002°33'1 2.3
2017-Oct-28 09:00N 39°30' E 002°32'1 1.3
2017-Oct-28 08:30N 39°30' E 002°32'4 7.1
2017-Oct-28 08:00N 39°32' E 002°36'3 5.1
2017-Oct-28 07:30N 39°34' E 002°38'0 0.2
2017-Oct-28 07:00N 39°34' E 002°38'0 0.0
2017-Oct-27 15:58N 39°34' E 002°38'2 3.9
2017-Oct-27 15:30N 39°32' E 002°37'4 8.1
2017-Oct-27 15:00N 39°31' E 002°32'3 5.0
2017-Oct-27 14:30N 39°28' E 002°31'3 6.2
2017-Oct-27 14:00N 39°31' E 002°33'1 1.2
2017-Oct-27 13:30N 39°32' E 002°34'1 3.1
2017-Oct-27 13:00N 39°30' E 002°33'2 4.6
2017-Oct-27 12:30N 39°28' E 002°31'3 6.1
2017-Oct-27 12:00N 39°31' E 002°33'0 0.9
2017-Oct-27 11:30N 39°32' E 002°33'1 2.5
2017-Oct-27 11:00N 39°30' E 002°33'2 4.2
2017-Oct-27 10:29N 39°28' E 002°32'3 6.9
2017-Oct-27 10:00N 39°32' E 002°33'1 1.1
2017-Oct-27 09:30N 39°31' E 002°33'1 2.1
2017-Oct-27 08:59N 39°30' E 002°32'3 5.8
2017-Oct-27 08:30N 39°31' E 002°36'3 0.2
2017-Oct-26 15:54N 39°34' E 002°38'2 6.4
2017-Oct-26 15:30N 39°32' E 002°36'3 5.5
2017-Oct-26 15:00N 39°31' E 002°33'3 4.8
2017-Oct-26 14:28N 39°28' E 002°32'4 4.5
2017-Oct-26 13:41N 39°32' E 002°33'1 3.1
2017-Oct-26 13:30N 39°31' E 002°33'1 2.0
2017-Oct-26 12:59N 39°30' E 002°32'2 4.0
2017-Oct-26 12:30N 39°29' E 002°32'3 3.9
2017-Oct-26 11:38N 39°32' E 002°33'0 2.8
2017-Oct-26 11:30N 39°31' E 002°33'1 2.4
2017-Oct-26 10:57N 39°30' E 002°32'2 3.6
2017-Oct-26 10:27N 39°28' E 002°32'3 7.2
2017-Oct-26 09:59N 39°31' E 002°33'0 0.2
2017-Oct-26 09:30N 39°32' E 002°33'1 2.9
2017-Oct-26 09:00N 39°30' E 002°32'1 1.4
2017-Oct-26 08:31N 39°30' E 002°33'510.2
2017-Oct-26 08:00N 39°33' E 002°38'1 1.9
2017-Oct-26 07:30N 39°34' E 002°38'0 0.0
2017-Oct-25 16:11N 39°34' E 002°38'0 0.1
2017-Oct-25 16:00N 39°34' E 002°38'4 7.1
2017-Oct-25 15:30N 39°31' E 002°34'2 4.0
2017-Oct-25 15:00N 39°30' E 002°32'2 4.2
2017-Oct-25 14:30N 39°28' E 002°31'3 6.3
2017-Oct-25 14:00N 39°31' E 002°33'1 1.6
2017-Oct-25 13:30N 39°32' E 002°34'2 3.4
2017-Oct-25 13:00N 39°30' E 002°32'2 4.1
2017-Oct-25 12:30N 39°28' E 002°32'3 5.0
2017-Oct-25 11:49N 39°32' E 002°33'0 1.5
2017-Oct-25 11:30N 39°31' E 002°33'1 2.1
2017-Oct-25 10:57N 39°30' E 002°32'2 3.8
2017-Oct-25 10:27N 39°28' E 002°32'3 7.1
2017-Oct-25 10:00N 39°31' E 002°33'0 0.7
2017-Oct-25 09:30N 39°32' E 002°33'2 3.0
2017-Oct-25 09:00N 39°30' E 002°32'1 1.2
2017-Oct-25 08:30N 39°30' E 002°32'4 8.5
2017-Oct-25 08:00N 39°32' E 002°37'2 3.7
2017-Oct-25 07:30N 39°34' E 002°38'0 0.0
2017-Oct-24 15:55N 39°34' E 002°38'3 6.1
2017-Oct-24 15:30N 39°32' E 002°36'3 5.5
2017-Oct-24 15:00N 39°31' E 002°33'2 4.6
2017-Oct-24 14:30N 39°28' E 002°31'3 6.8
2017-Oct-24 14:00N 39°31' E 002°33'0 0.7
2017-Oct-24 13:30N 39°31' E 002°33'1 2.1
2017-Oct-24 12:59N 39°30' E 002°32'2 3.5
2017-Oct-24 12:30N 39°29' E 002°32'3 5.0
2017-Oct-24 11:52N 39°32' E 002°33'1 2.3
2017-Oct-24 11:30N 39°31' E 002°32'1 1.7
2017-Oct-24 11:00N 39°30' E 002°32'2 4.2
2017-Oct-24 10:30N 39°28' E 002°31'3 6.4
2017-Oct-24 10:00N 39°31' E 002°33'0 0.4
2017-Oct-24 09:30N 39°31' E 002°33'1 2.2
2017-Oct-24 08:58N 39°30' E 002°32'0 0.3
2017-Oct-24 08:25N 39°30' E 002°32'1 2.4
2017-Oct-24 08:00N 39°31' E 002°33'4 7.6
2017-Oct-24 07:30N 39°33' E 002°38'2 3.1
2017-Oct-24 07:00N 39°34' E 002°38'0 0.0
2017-Oct-23 16:06N 39°34' E 002°38'0 0.2
2017-Oct-23 16:00N 39°34' E 002°38'3 6.8
2017-Oct-23 15:30N 39°31' E 002°35'2 4.4
2017-Oct-23 15:00N 39°30' E 002°32'2 3.4
2017-Oct-23 14:30N 39°29' E 002°32'3 6.1
2017-Oct-23 13:59N 39°32' E 002°33'0 0.9
2017-Oct-23 13:30N 39°31' E 002°33'1 2.0
2017-Oct-23 12:57N 39°30' E 002°32'2 3.5
2017-Oct-23 12:28N 39°29' E 002°32'3 5.3
2017-Oct-23 11:53N 39°32' E 002°33'0 0.6
2017-Oct-23 11:30N 39°31' E 002°33'1 2.6
2017-Oct-23 11:00N 39°30' E 002°32'2 3.2
2017-Oct-23 10:29N 39°29' E 002°32'3 6.0
2017-Oct-23 09:57N 39°32' E 002°33'1 1.6
2017-Oct-23 09:27N 39°31' E 002°32'1 1.9
2017-Oct-23 09:00N 39°30' E 002°32'3 5.1
2017-Oct-23 08:30N 39°31' E 002°35'3 0.2
2017-Oct-22 11:45N 39°34' E 002°38'1 4.8
2017-Oct-22 11:30N 39°33' E 002°38'4 8.4
2017-Oct-22 11:00N 39°31' E 002°33'1 1.5
2017-Oct-22 10:30N 39°30' E 002°33'0 0.0
2017-Oct-22 10:00N 39°30' E 002°33'0 0.0
2017-Oct-22 09:30N 39°30' E 002°33'0 0.7
2017-Oct-22 09:00N 39°30' E 002°32'1 1.7
2017-Oct-22 08:30N 39°31' E 002°33'4 8.9
2017-Oct-22 08:00N 39°33' E 002°38'1 0.1
2017-Oct-21 15:56N 39°34' E 002°38'3 6.2
2017-Oct-21 15:30N 39°32' E 002°36'3 5.3
2017-Oct-21 15:00N 39°31' E 002°33'3 5.4
2017-Oct-21 14:30N 39°28' E 002°31'4 3.8
2017-Oct-21 13:30N 39°32' E 002°33'2 3.1
2017-Oct-21 13:00N 39°30' E 002°32'2 4.1
2017-Oct-21 12:30N 39°28' E 002°32'4 4.9
2017-Oct-21 11:47N 39°32' E 002°33'1 2.0
2017-Oct-21 11:30N 39°31' E 002°33'1 1.8
2017-Oct-21 10:57N 39°30' E 002°32'2 5.5
2017-Oct-21 10:30N 39°28' E 002°31'3 6.6
2017-Oct-21 10:00N 39°31' E 002°33'1 1.2
2017-Oct-21 09:30N 39°32' E 002°33'1 2.8
2017-Oct-21 08:59N 39°30' E 002°32'1 1.4
2017-Oct-21 08:30N 39°30' E 002°32'4 7.8
2017-Oct-21 08:00N 39°32' E 002°37'2 4.5
2017-Oct-21 07:30N 39°34' E 002°38'0 0.0
2017-Oct-21 07:00N 39°34' E 002°38'0 0.0
2017-Oct-20 15:51N 39°34' E 002°38'2 5.2
2017-Oct-20 15:30N 39°32' E 002°37'4 7.5
2017-Oct-20 15:00N 39°31' E 002°32'4 3.7
2017-Oct-20 14:00N 39°33' E 002°36'3 5.0
2017-Oct-20 13:29N 39°32' E 002°34'  
Track history (hours):
 
Tides and Currents Weather Stations Pressure Air Temp Water Temp Dewpoint Dewpoint Depression Visibility Wind Speed Wind Dir Waves Ship Positions

Esmeralda Dos

Last reported at 2017-Oct-30 13:08 UTC. Time now 2017-Nov-24 16:48 UTC.
Position N 39°34' E 002°38'.
Warning: this ship's position is 25 days out of date.

Length 20 m.

Type: Passenger vessel. MMSI: 224005990.

Date/timePositionNaut miles runAvg speedWind from/ knotsBaromVisibWave heightAir tempDewpointWater temp
2017-Oct-30 13:08N 39°34' E 002°38'0 1.4
2017-Oct-30 13:00N 39°34' E 002°38'4 8.4
2017-Oct-30 12:31N 39°31' E 002°34'2 3.6
2017-Oct-30 12:00N 39°30' E 002°32'1 2.6
2017-Oct-30 11:30N 39°29' E 002°32'3 4.6
2017-Oct-30 10:46N 39°32' E 002°33'0 1.0
2017-Oct-30 10:30N 39°31' E 002°33'1 2.4
2017-Oct-30 09:58N 39°30' E 002°32'1 1.5
2017-Oct-30 09:31N 39°30' E 002°32'4 7.6
2017-Oct-30 09:00N 39°32' E 002°36'2 4.8
2017-Oct-30 08:31N 39°34' E 002°38'0 0.0
2017-Oct-29 16:55N 39°34' E 002°38'1 3.5
2017-Oct-29 16:30N 39°32' E 002°38'4 8.4
2017-Oct-29 15:59N 39°31' E 002°32'1 2.0
2017-Oct-29 15:31N 39°30' E 002°34'5 9.4
2017-Oct-29 15:01N 39°33' E 002°39'3 6.7
2017-Oct-29 14:30N 39°32' E 002°35'2 4.1
2017-Oct-29 14:00N 39°30' E 002°33'0 0.5
2017-Oct-29 13:30N 39°30' E 002°32'0 0.0
2017-Oct-29 13:01N 39°30' E 002°32'0 0.1
2017-Oct-29 12:30N 39°30' E 002°32'0 0.2
2017-Oct-29 12:01N 39°30' E 002°32'3 5.6
2017-Oct-29 11:30N 39°28' E 002°32'3 6.4
2017-Oct-29 11:00N 39°31' E 002°33'1 1.4
2017-Oct-29 10:30N 39°31' E 002°33'1 2.3
2017-Oct-29 10:00N 39°30' E 002°32'1 2.3
2017-Oct-29 09:30N 39°30' E 002°34'5 9.0
2017-Oct-29 09:00N 39°33' E 002°38'1 2.0
2017-Oct-29 08:30N 39°34' E 002°38'0 0.0
2017-Oct-28 13:50N 39°34' E 002°38'2 4.6
2017-Oct-28 13:30N 39°32' E 002°37'4 8.2
2017-Oct-28 13:00N 39°31' E 002°32'2 2.6
2017-Oct-28 12:25N 39°31' E 002°34'3 7.9
2017-Oct-28 12:00N 39°33' E 002°38'3 6.4
2017-Oct-28 11:30N 39°32' E 002°34'2 3.1
2017-Oct-28 11:00N 39°31' E 002°33'1 1.4
2017-Oct-28 10:30N 39°30' E 002°34'3 7.0
2017-Oct-28 10:00N 39°33' E 002°37'3 6.6
2017-Oct-28 09:29N 39°31' E 002°33'1 2.3
2017-Oct-28 09:00N 39°30' E 002°32'1 1.3
2017-Oct-28 08:30N 39°30' E 002°32'4 7.1
2017-Oct-28 08:00N 39°32' E 002°36'3 5.1
2017-Oct-28 07:30N 39°34' E 002°38'0 0.2
2017-Oct-28 07:00N 39°34' E 002°38'0 0.0
2017-Oct-27 15:58N 39°34' E 002°38'2 3.9
2017-Oct-27 15:30N 39°32' E 002°37'4 8.1
2017-Oct-27 15:00N 39°31' E 002°32'3 5.0
2017-Oct-27 14:30N 39°28' E 002°31'3 6.2
2017-Oct-27 14:00N 39°31' E 002°33'1 1.2
2017-Oct-27 13:30N 39°32' E 002°34'1 3.1
2017-Oct-27 13:00N 39°30' E 002°33'2 4.6
2017-Oct-27 12:30N 39°28' E 002°31'3 6.1
2017-Oct-27 12:00N 39°31' E 002°33'0 0.9
2017-Oct-27 11:30N 39°32' E 002°33'1 2.5
2017-Oct-27 11:00N 39°30' E 002°33'2 4.2
2017-Oct-27 10:29N 39°28' E 002°32'3 6.9
2017-Oct-27 10:00N 39°32' E 002°33'1 1.1
2017-Oct-27 09:30N 39°31' E 002°33'1 2.1
2017-Oct-27 08:59N 39°30' E 002°32'3 5.8
2017-Oct-27 08:30N 39°31' E 002°36'3 0.2
2017-Oct-26 15:54N 39°34' E 002°38'2 6.4
2017-Oct-26 15:30N 39°32' E 002°36'3 5.5
2017-Oct-26 15:00N 39°31' E 002°33'3 4.8
2017-Oct-26 14:28N 39°28' E 002°32'4 4.5
2017-Oct-26 13:41N 39°32' E 002°33'1 3.1
2017-Oct-26 13:30N 39°31' E 002°33'1 2.0
2017-Oct-26 12:59N 39°30' E 002°32'2 4.0
2017-Oct-26 12:30N 39°29' E 002°32'3 3.9
2017-Oct-26 11:38N 39°32' E 002°33'0 2.8
2017-Oct-26 11:30N 39°31' E 002°33'1 2.4
2017-Oct-26 10:57N 39°30' E 002°32'2 3.6
2017-Oct-26 10:27N 39°28' E 002°32'3 7.2
2017-Oct-26 09:59N 39°31' E 002°33'0 0.2
2017-Oct-26 09:30N 39°32' E 002°33'1 2.9
2017-Oct-26 09:00N 39°30' E 002°32'1 1.4
2017-Oct-26 08:31N 39°30' E 002°33'510.2
2017-Oct-26 08:00N 39°33' E 002°38'1 1.9
2017-Oct-26 07:30N 39°34' E 002°38'0 0.0
2017-Oct-25 16:11N 39°34' E 002°38'0 0.1
2017-Oct-25 16:00N 39°34' E 002°38'4 7.1
2017-Oct-25 15:30N 39°31' E 002°34'2 4.0
2017-Oct-25 15:00N 39°30' E 002°32'2 4.2
2017-Oct-25 14:30N 39°28' E 002°31'3 6.3
2017-Oct-25 14:00N 39°31' E 002°33'1 1.6
2017-Oct-25 13:30N 39°32' E 002°34'2 3.4
2017-Oct-25 13:00N 39°30' E 002°32'2 4.1
2017-Oct-25 12:30N 39°28' E 002°32'3 5.0
2017-Oct-25 11:49N 39°32' E 002°33'0 1.5
2017-Oct-25 11:30N 39°31' E 002°33'1 2.1
2017-Oct-25 10:57N 39°30' E 002°32'2 3.8
2017-Oct-25 10:27N 39°28' E 002°32'3 7.1
2017-Oct-25 10:00N 39°31' E 002°33'0 0.7
2017-Oct-25 09:30N 39°32' E 002°33'2 3.0
2017-Oct-25 09:00N 39°30' E 002°32'1 1.2
2017-Oct-25 08:30N 39°30' E 002°32'4 8.5
2017-Oct-25 08:00N 39°32' E 002°37'2 3.7
2017-Oct-25 07:30N 39°34' E 002°38'0 0.0
2017-Oct-24 15:55N 39°34' E 002°38'3 6.1
2017-Oct-24 15:30N 39°32' E 002°36'3 5.5
2017-Oct-24 15:00N 39°31' E 002°33'2 4.6
2017-Oct-24 14:30N 39°28' E 002°31'3 6.8
2017-Oct-24 14:00N 39°31' E 002°33'0 0.7
2017-Oct-24 13:30N 39°31' E 002°33'1 2.1
2017-Oct-24 12:59N 39°30' E 002°32'2 3.5
2017-Oct-24 12:30N 39°29' E 002°32'3 5.0
2017-Oct-24 11:52N 39°32' E 002°33'1 2.3
2017-Oct-24 11:30N 39°31' E 002°32'1 1.7
2017-Oct-24 11:00N 39°30' E 002°32'2 4.2
2017-Oct-24 10:30N 39°28' E 002°31'3 6.4
2017-Oct-24 10:00N 39°31' E 002°33'0 0.4
2017-Oct-24 09:30N 39°31' E 002°33'1 2.2
2017-Oct-24 08:58N 39°30' E 002°32'0 0.3
2017-Oct-24 08:25N 39°30' E 002°32'1 2.4
2017-Oct-24 08:00N 39°31' E 002°33'4 7.6
2017-Oct-24 07:30N 39°33' E 002°38'2 3.1
2017-Oct-24 07:00N 39°34' E 002°38'0 0.0
2017-Oct-23 16:06N 39°34' E 002°38'0 0.2
2017-Oct-23 16:00N 39°34' E 002°38'3 6.8
2017-Oct-23 15:30N 39°31' E 002°35'2 4.4
2017-Oct-23 15:00N 39°30' E 002°32'2 3.4
2017-Oct-23 14:30N 39°29' E 002°32'3 6.1
2017-Oct-23 13:59N 39°32' E 002°33'0 0.9
2017-Oct-23 13:30N 39°31' E 002°33'1 2.0
2017-Oct-23 12:57N 39°30' E 002°32'2 3.5
2017-Oct-23 12:28N 39°29' E 002°32'3 5.3
2017-Oct-23 11:53N 39°32' E 002°33'0 0.6
2017-Oct-23 11:30N 39°31' E 002°33'1 2.6
2017-Oct-23 11:00N 39°30' E 002°32'2 3.2
2017-Oct-23 10:29N 39°29' E 002°32'3 6.0
2017-Oct-23 09:57N 39°32' E 002°33'1 1.6
2017-Oct-23 09:27N 39°31' E 002°32'1 1.9
2017-Oct-23 09:00N 39°30' E 002°32'3 5.1
2017-Oct-23 08:30N 39°31' E 002°35'3 0.2
2017-Oct-22 11:45N 39°34' E 002°38'1 4.8
2017-Oct-22 11:30N 39°33' E 002°38'4 8.4
2017-Oct-22 11:00N 39°31' E 002°33'1 1.5
2017-Oct-22 10:30N 39°30' E 002°33'0 0.0
2017-Oct-22 10:00N 39°30' E 002°33'0 0.0
2017-Oct-22 09:30N 39°30' E 002°33'0 0.7
2017-Oct-22 09:00N 39°30' E 002°32'1 1.7
2017-Oct-22 08:30N 39°31' E 002°33'4 8.9
2017-Oct-22 08:00N 39°33' E 002°38'1 0.1
2017-Oct-21 15:56N 39°34' E 002°38'3 6.2
2017-Oct-21 15:30N 39°32' E 002°36'3 5.3
2017-Oct-21 15:00N 39°31' E 002°33'3 5.4
2017-Oct-21 14:30N 39°28' E 002°31'4 3.8
2017-Oct-21 13:30N 39°32' E 002°33'2 3.1
2017-Oct-21 13:00N 39°30' E 002°32'2 4.1
2017-Oct-21 12:30N 39°28' E 002°32'4 4.9
2017-Oct-21 11:47N 39°32' E 002°33'1 2.0
2017-Oct-21 11:30N 39°31' E 002°33'1 1.8
2017-Oct-21 10:57N 39°30' E 002°32'2 5.5
2017-Oct-21 10:30N 39°28' E 002°31'3 6.6
2017-Oct-21 10:00N 39°31' E 002°33'1 1.2
2017-Oct-21 09:30N 39°32' E 002°33'1 2.8
2017-Oct-21 08:59N 39°30' E 002°32'1 1.4
2017-Oct-21 08:30N 39°30' E 002°32'4 7.8
2017-Oct-21 08:00N 39°32' E 002°37'2 4.5
2017-Oct-21 07:30N 39°34' E 002°38'0 0.0
2017-Oct-21 07:00N 39°34' E 002°38'0 0.0
2017-Oct-20 15:51N 39°34' E 002°38'2 5.2
2017-Oct-20 15:30N 39°32' E 002°37'4 7.5
2017-Oct-20 15:00N 39°31' E 002°32'4 3.7
2017-Oct-20 14:00N 39°33' E 002°36'3 5.0
2017-Oct-20 13:29N 39°32' E 002°34'  

Dump ship's entire track history